Список аэропортов
Фактическая погода:

24 мая, 16:00
Температура: +17°C (+16.6*)
Ветер: восточный 4 м/с
Давление: *764 мм
неб. облачность
кучево-дождевые 840 м
Время (МСК)Темп. СВетерВлажностьДавлениеОблачностьОсадки
15:00+18В, 2 м/с58%1018 гПаоблачно
16:00+17Ю, 2 м/с62%1018 гПаоблачно
17:00+16ЮЗ, 4 м/с66%1018 гПаоблачно
18:00+16ЮЗ, 4 м/с70%1018 гПаоблачно
19:00+15ЮЗ, 3 м/с73%1018 гПаоблачно
20:00+14Ю, 2 м/с76%1018 гПаоблачно
21:00+14Ю, 2 м/с79%1019 гПаоблачно
22:00+13Ю, 1 м/с84%1019 гПас прояснениями
23:00+12Ю, 1 м/с92%1018 гПамалооблачно
25 мая
00:00+12ЮВ, 2 м/с94%1018 гПамалооблачно
01:00+11В, 1 м/с97%1018 гПас прояснениями
02:00+11В, 2 м/с98%1018 гПаоблачно
03:00+10ЮВ, 2 м/с98%1018 гПаоблачно
04:00+10ЮВ, 2 м/с98%1018 гПаоблачно
05:00+10В, 2 м/с98%1018 гПаоблачно
06:00+11В, 2 м/с95%1018 гПас прояснениями
07:00+13В, 1 м/с87%1018 гПаоблачно
08:00+15Штиль 73%1018 гПаоблачно
09:00+17СВ, 1 м/с64%1018 гПаоблачно
10:00+18В, 3 м/с50%1018 гПаоблачно
11:00+19В, 5 м/с46%1018 гПас прояснениями
12:00+20В, 5 м/с46%1018 гПас прояснениями
13:00+20В, 3 м/с45%1018 гПаоблачно
14:00+19ЮЗ, 3 м/с54%1017 гПаоблачно
15:00+18ЮЗ, 5 м/с63%1017 гПаоблачно
16:00+17ЮЗ, 5 м/с66%1017 гПаоблачно
17:00+16З, 4 м/с66%1017 гПас прояснениями
18:00+16З, 3 м/с66%1017 гПас прояснениями
19:00+16З, 3 м/с66%1017 гПас прояснениями
20:00+15З, 2 м/с69%1017 гПас прояснениями
21:00+15СЗ, 1 м/с72%1017 гПас прояснениями
22:00+14С, 1 м/с80%1017 гПамалооблачно
23:00+13С, 1 м/с85%1016 гПаясно
26 мая
00:00+12В, 1 м/с91%1016 гПаясно
01:00+11ЮВ, 1 м/с92%1016 гПаясно
02:00+11В, 1 м/с93%1016 гПаясно
03:00+10В, 2 м/с93%1015 гПаясно
04:00+10В, 2 м/с93%1015 гПаясно
05:00+10В, 2 м/с95%1015 гПаясно
06:00+10В, 2 м/с92%1015 гПаясно
07:00+14В, 2 м/с78%1015 гПаясно
08:00+17СВ, 3 м/с61%1015 гПаясно
09:00+19В, 4 м/с52%1015 гПаясно
10:00+20В, 4 м/с47%1015 гПаясно
11:00+21В, 4 м/с44%1014 гПамалооблачно
12:00+22В, 3 м/с41%1014 гПамалооблачно
13:00+22Ю, 2 м/с41%1014 гПамалооблачно
14:00+22ЮЗ, 5 м/с44%1013 гПамалооблачно
15:00+22З, 6 м/с44%1013 гПаясно